sensor_id;sensor_type;location;lat;lon;timestamp;P1;durP1;ratioP1;P2;durP2;ratioP2
1837;SDS011;918;50.796;6.772;2023-06-22T00:00:26;4.50;;;4.20;;
1837;SDS011;918;50.796;6.772;2023-06-22T00:02:51;4.83;;;4.53;;
1837;SDS011;918;50.796;6.772;2023-06-22T00:05:16;4.40;;;4.10;;
1837;SDS011;918;50.796;6.772;2023-06-22T00:07:42;4.30;;;4.00;;
1837;SDS011;918;50.796;6.772;2023-06-22T00:10:07;4.37;;;4.07;;
1837;SDS011;918;50.796;6.772;2023-06-22T00:12:32;4.37;;;4.03;;
1837;SDS011;918;50.796;6.772;2023-06-22T00:14:57;5.20;;;4.77;;
1837;SDS011;918;50.796;6.772;2023-06-22T00:17:23;4.80;;;4.43;;
1837;SDS011;918;50.796;6.772;2023-06-22T00:19:48;4.93;;;4.53;;
1837;SDS011;918;50.796;6.772;2023-06-22T00:22:18;4.83;;;4.50;;
1837;SDS011;918;50.796;6.772;2023-06-22T00:24:46;4.87;;;4.50;;
1837;SDS011;918;50.796;6.772;2023-06-22T00:27:11;6.77;;;4.70;;
1837;SDS011;918;50.796;6.772;2023-06-22T00:29:37;4.40;;;4.10;;
1837;SDS011;918;50.796;6.772;2023-06-22T00:32:02;5.50;;;5.00;;
1837;SDS011;918;50.796;6.772;2023-06-22T00:34:28;5.40;;;4.60;;
1837;SDS011;918;50.796;6.772;2023-06-22T00:36:53;5.10;;;4.70;;
1837;SDS011;918;50.796;6.772;2023-06-22T00:39:18;4.70;;;4.40;;
1837;SDS011;918;50.796;6.772;2023-06-22T00:41:43;5.13;;;4.73;;
1837;SDS011;918;50.796;6.772;2023-06-22T00:44:09;4.80;;;4.50;;
1837;SDS011;918;50.796;6.772;2023-06-22T00:46:34;4.13;;;3.83;;
1837;SDS011;918;50.796;6.772;2023-06-22T00:48:59;5.73;;;5.20;;
1837;SDS011;918;50.796;6.772;2023-06-22T00:51:24;4.90;;;4.50;;
1837;SDS011;918;50.796;6.772;2023-06-22T00:53:50;4.43;;;4.13;;
1837;SDS011;918;50.796;6.772;2023-06-22T00:56:16;5.80;;;4.80;;
1837;SDS011;918;50.796;6.772;2023-06-22T00:58:44;4.43;;;4.13;;
1837;SDS011;918;50.796;6.772;2023-06-22T01:01:10;4.97;;;4.57;;
1837;SDS011;918;50.796;6.772;2023-06-22T01:03:35;5.20;;;4.80;;
1837;SDS011;918;50.796;6.772;2023-06-22T01:06:07;4.90;;;4.60;;
1837;SDS011;918;50.796;6.772;2023-06-22T01:08:49;5.20;;;4.80;;
1837;SDS011;918;50.796;6.772;2023-06-22T01:11:22;5.70;;;5.10;;
1837;SDS011;918;50.796;6.772;2023-06-22T01:16:42;6.20;;;5.70;;
1837;SDS011;918;50.796;6.772;2023-06-22T01:19:15;5.47;;;5.03;;
1837;SDS011;918;50.796;6.772;2023-06-22T01:21:43;5.53;;;5.13;;
1837;SDS011;918;50.796;6.772;2023-06-22T01:24:23;7.67;;;5.10;;
1837;SDS011;918;50.796;6.772;2023-06-22T01:29:49;5.67;;;5.17;;
1837;SDS011;918;50.796;6.772;2023-06-22T01:32:16;6.27;;;5.80;;
1837;SDS011;918;50.796;6.772;2023-06-22T01:34:41;4.80;;;4.40;;
1837;SDS011;918;50.796;6.772;2023-06-22T01:37:07;5.73;;;5.33;;
1837;SDS011;918;50.796;6.772;2023-06-22T01:39:32;6.50;;;5.90;;
1837;SDS011;918;50.796;6.772;2023-06-22T01:41:58;5.80;;;5.40;;
1837;SDS011;918;50.796;6.772;2023-06-22T01:44:24;6.03;;;5.60;;
1837;SDS011;918;50.796;6.772;2023-06-22T01:46:50;5.60;;;5.20;;
1837;SDS011;918;50.796;6.772;2023-06-22T01:49:16;7.13;;;6.43;;
1837;SDS011;918;50.796;6.772;2023-06-22T01:51:41;6.37;;;5.97;;
1837;SDS011;918;50.796;6.772;2023-06-22T01:54:06;6.03;;;5.67;;
1837;SDS011;918;50.796;6.772;2023-06-22T01:56:33;6.40;;;6.00;;
1837;SDS011;918;50.796;6.772;2023-06-22T01:59:07;7.20;;;6.67;;
1837;SDS011;918;50.796;6.772;2023-06-22T02:01:39;6.37;;;5.77;;
1837;SDS011;918;50.796;6.772;2023-06-22T02:04:19;5.80;;;5.30;;
1837;SDS011;918;50.796;6.772;2023-06-22T02:06:46;6.17;;;5.67;;
1837;SDS011;918;50.796;6.772;2023-06-22T02:09:14;7.03;;;6.30;;
1837;SDS011;918;50.796;6.772;2023-06-22T02:11:41;6.00;;;5.60;;
1837;SDS011;918;50.796;6.772;2023-06-22T02:14:08;5.83;;;5.33;;
1837;SDS011;918;50.796;6.772;2023-06-22T02:16:35;5.83;;;5.33;;
1837;SDS011;918;50.796;6.772;2023-06-22T02:19:01;6.00;;;5.57;;
1837;SDS011;918;50.796;6.772;2023-06-22T02:21:31;5.57;;;5.03;;
1837;SDS011;918;50.796;6.772;2023-06-22T02:23:56;6.20;;;5.60;;
1837;SDS011;918;50.796;6.772;2023-06-22T02:26:22;7.07;;;6.57;;
1837;SDS011;918;50.796;6.772;2023-06-22T02:28:48;6.57;;;6.17;;
1837;SDS011;918;50.796;6.772;2023-06-22T02:31:14;7.00;;;6.40;;
1837;SDS011;918;50.796;6.772;2023-06-22T02:33:39;6.50;;;6.03;;
1837;SDS011;918;50.796;6.772;2023-06-22T02:36:04;8.63;;;5.87;;
1837;SDS011;918;50.796;6.772;2023-06-22T02:38:30;6.60;;;6.10;;
1837;SDS011;918;50.796;6.772;2023-06-22T02:40:59;6.03;;;5.50;;
1837;SDS011;918;50.796;6.772;2023-06-22T02:43:24;6.50;;;5.90;;
1837;SDS011;918;50.796;6.772;2023-06-22T02:45:49;7.53;;;6.90;;
1837;SDS011;918;50.796;6.772;2023-06-22T02:48:15;6.93;;;6.33;;
1837;SDS011;918;50.796;6.772;2023-06-22T02:50:40;7.00;;;6.40;;
1837;SDS011;918;50.796;6.772;2023-06-22T02:53:05;6.97;;;6.47;;
1837;SDS011;918;50.796;6.772;2023-06-22T02:55:30;7.30;;;6.17;;
1837;SDS011;918;50.796;6.772;2023-06-22T02:57:56;8.40;;;6.87;;
1837;SDS011;918;50.796;6.772;2023-06-22T03:00:22;6.90;;;6.30;;
1837;SDS011;918;50.796;6.772;2023-06-22T03:02:48;6.93;;;6.30;;
1837;SDS011;918;50.796;6.772;2023-06-22T03:05:14;6.50;;;6.10;;
1837;SDS011;918;50.796;6.772;2023-06-22T03:07:43;5.60;;;5.20;;
1837;SDS011;918;50.796;6.772;2023-06-22T03:10:09;6.13;;;5.73;;
1837;SDS011;918;50.796;6.772;2023-06-22T03:12:34;6.87;;;6.27;;
1837;SDS011;918;50.796;6.772;2023-06-22T03:15:00;7.17;;;6.63;;
1837;SDS011;918;50.796;6.772;2023-06-22T03:17:25;7.40;;;6.70;;
1837;SDS011;918;50.796;6.772;2023-06-22T03:19:50;7.23;;;6.63;;
1837;SDS011;918;50.796;6.772;2023-06-22T03:22:16;6.40;;;5.90;;
1837;SDS011;918;50.796;6.772;2023-06-22T03:24:41;6.30;;;5.80;;
1837;SDS011;918;50.796;6.772;2023-06-22T03:27:06;6.30;;;5.70;;
1837;SDS011;918;50.796;6.772;2023-06-22T03:29:31;7.10;;;6.00;;
1837;SDS011;918;50.796;6.772;2023-06-22T03:31:57;6.27;;;5.80;;
1837;SDS011;918;50.796;6.772;2023-06-22T03:34:22;6.70;;;6.20;;
1837;SDS011;918;50.796;6.772;2023-06-22T03:36:47;7.37;;;6.67;;
1837;SDS011;918;50.796;6.772;2023-06-22T03:39:12;6.80;;;6.07;;
1837;SDS011;918;50.796;6.772;2023-06-22T03:41:38;6.63;;;5.73;;
1837;SDS011;918;50.796;6.772;2023-06-22T03:44:03;6.50;;;6.03;;
1837;SDS011;918;50.796;6.772;2023-06-22T03:46:29;6.60;;;6.10;;
1837;SDS011;918;50.796;6.772;2023-06-22T03:48:54;6.40;;;5.80;;
1837;SDS011;918;50.796;6.772;2023-06-22T03:51:19;8.20;;;7.27;;
1837;SDS011;918;50.796;6.772;2023-06-22T03:53:45;6.47;;;5.87;;
1837;SDS011;918;50.796;6.772;2023-06-22T03:56:10;7.00;;;6.50;;
1837;SDS011;918;50.796;6.772;2023-06-22T03:58:35;7.27;;;6.10;;
1837;SDS011;918;50.796;6.772;2023-06-22T04:01:01;6.90;;;6.27;;
1837;SDS011;918;50.796;6.772;2023-06-22T04:03:27;6.30;;;5.90;;
1837;SDS011;918;50.796;6.772;2023-06-22T04:05:52;12.50;;;7.20;;
1837;SDS011;918;50.796;6.772;2023-06-22T04:08:17;8.47;;;7.63;;
1837;SDS011;918;50.796;6.772;2023-06-22T04:10:42;7.77;;;6.97;;
1837;SDS011;918;50.796;6.772;2023-06-22T04:13:08;10.50;;;7.73;;
1837;SDS011;918;50.796;6.772;2023-06-22T04:15:33;8.20;;;7.40;;
1837;SDS011;918;50.796;6.772;2023-06-22T04:17:58;6.67;;;6.17;;
1837;SDS011;918;50.796;6.772;2023-06-22T04:20:24;7.70;;;7.00;;
1837;SDS011;918;50.796;6.772;2023-06-22T04:22:51;16.77;;;10.50;;
1837;SDS011;918;50.796;6.772;2023-06-22T04:25:19;13.20;;;8.60;;
1837;SDS011;918;50.796;6.772;2023-06-22T04:27:45;16.50;;;10.20;;
1837;SDS011;918;50.796;6.772;2023-06-22T04:30:11;11.87;;;8.53;;
1837;SDS011;918;50.796;6.772;2023-06-22T04:32:37;22.83;;;10.97;;
1837;SDS011;918;50.796;6.772;2023-06-22T04:35:03;17.40;;;10.80;;
1837;SDS011;918;50.796;6.772;2023-06-22T04:37:30;8.20;;;7.17;;
1837;SDS011;918;50.796;6.772;2023-06-22T04:39:55;7.80;;;7.10;;
1837;SDS011;918;50.796;6.772;2023-06-22T04:42:21;8.60;;;7.77;;
1837;SDS011;918;50.796;6.772;2023-06-22T04:44:46;7.40;;;6.80;;
1837;SDS011;918;50.796;6.772;2023-06-22T04:47:11;7.57;;;6.77;;
1837;SDS011;918;50.796;6.772;2023-06-22T04:49:36;7.83;;;7.23;;
1837;SDS011;918;50.796;6.772;2023-06-22T04:52:08;9.47;;;7.43;;
1837;SDS011;918;50.796;6.772;2023-06-22T04:54:37;7.17;;;6.53;;
1837;SDS011;918;50.796;6.772;2023-06-22T04:57:04;8.97;;;6.70;;
1837;SDS011;918;50.796;6.772;2023-06-22T04:59:34;9.27;;;7.00;;
1837;SDS011;918;50.796;6.772;2023-06-22T05:02:01;9.20;;;7.40;;
1837;SDS011;918;50.796;6.772;2023-06-22T05:04:28;6.90;;;6.40;;
1837;SDS011;918;50.796;6.772;2023-06-22T05:06:56;8.47;;;6.73;;
1837;SDS011;918;50.796;6.772;2023-06-22T05:09:21;7.87;;;6.47;;
1837;SDS011;918;50.796;6.772;2023-06-22T05:11:47;7.90;;;6.47;;
1837;SDS011;918;50.796;6.772;2023-06-22T05:14:12;8.03;;;7.23;;
1837;SDS011;918;50.796;6.772;2023-06-22T05:16:38;8.17;;;7.57;;
1837;SDS011;918;50.796;6.772;2023-06-22T05:19:03;8.80;;;7.00;;
1837;SDS011;918;50.796;6.772;2023-06-22T05:21:29;8.20;;;6.73;;
1837;SDS011;918;50.796;6.772;2023-06-22T05:23:55;8.77;;;6.70;;
1837;SDS011;918;50.796;6.772;2023-06-22T05:26:24;8.33;;;7.17;;
1837;SDS011;918;50.796;6.772;2023-06-22T05:28:50;8.07;;;7.47;;
1837;SDS011;918;50.796;6.772;2023-06-22T05:31:16;8.33;;;7.60;;
1837;SDS011;918;50.796;6.772;2023-06-22T05:33:42;8.10;;;7.30;;
1837;SDS011;918;50.796;6.772;2023-06-22T05:36:08;6.73;;;6.23;;
1837;SDS011;918;50.796;6.772;2023-06-22T05:38:34;7.17;;;6.57;;
1837;SDS011;918;50.796;6.772;2023-06-22T05:40:59;6.33;;;5.83;;
1837;SDS011;918;50.796;6.772;2023-06-22T05:43:25;7.20;;;6.43;;
1837;SDS011;918;50.796;6.772;2023-06-22T05:45:50;7.63;;;6.77;;
1837;SDS011;918;50.796;6.772;2023-06-22T05:48:15;6.70;;;6.30;;
1837;SDS011;918;50.796;6.772;2023-06-22T05:50:40;8.77;;;7.00;;
1837;SDS011;918;50.796;6.772;2023-06-22T05:53:07;6.90;;;6.37;;
1837;SDS011;918;50.796;6.772;2023-06-22T05:55:32;7.60;;;6.87;;
1837;SDS011;918;50.796;6.772;2023-06-22T05:57:57;7.57;;;6.97;;
1837;SDS011;918;50.796;6.772;2023-06-22T06:00:23;7.03;;;6.53;;
1837;SDS011;918;50.796;6.772;2023-06-22T06:02:48;7.83;;;7.17;;
1837;SDS011;918;50.796;6.772;2023-06-22T06:05:14;7.77;;;6.83;;
1837;SDS011;918;50.796;6.772;2023-06-22T06:07:40;6.70;;;6.20;;
1837;SDS011;918;50.796;6.772;2023-06-22T06:10:06;6.80;;;6.30;;
1837;SDS011;918;50.796;6.772;2023-06-22T06:12:31;7.60;;;7.07;;
1837;SDS011;918;50.796;6.772;2023-06-22T06:14:57;8.13;;;7.37;;
1837;SDS011;918;50.796;6.772;2023-06-22T06:17:22;6.97;;;6.40;;
1837;SDS011;918;50.796;6.772;2023-06-22T06:19:47;7.10;;;6.40;;
1837;SDS011;918;50.796;6.772;2023-06-22T06:22:13;7.37;;;6.80;;
1837;SDS011;918;50.796;6.772;2023-06-22T06:24:38;6.77;;;6.20;;
1837;SDS011;918;50.796;6.772;2023-06-22T06:27:03;7.20;;;6.70;;
1837;SDS011;918;50.796;6.772;2023-06-22T06:29:29;7.27;;;6.77;;
1837;SDS011;918;50.796;6.772;2023-06-22T06:31:55;7.70;;;7.00;;
1837;SDS011;918;50.796;6.772;2023-06-22T06:34:21;7.60;;;7.10;;
1837;SDS011;918;50.796;6.772;2023-06-22T06:36:47;7.77;;;7.20;;
1837;SDS011;918;50.796;6.772;2023-06-22T06:39:12;8.47;;;7.93;;
1837;SDS011;918;50.796;6.772;2023-06-22T06:41:37;8.57;;;7.87;;
1837;SDS011;918;50.796;6.772;2023-06-22T06:44:02;8.00;;;7.50;;
1837;SDS011;918;50.796;6.772;2023-06-22T06:46:28;7.93;;;7.33;;
1837;SDS011;918;50.796;6.772;2023-06-22T06:48:53;8.20;;;7.60;;
1837;SDS011;918;50.796;6.772;2023-06-22T06:51:18;7.90;;;7.30;;
1837;SDS011;918;50.796;6.772;2023-06-22T06:53:44;8.30;;;7.60;;
1837;SDS011;918;50.796;6.772;2023-06-22T06:56:09;8.83;;;8.13;;
1837;SDS011;918;50.796;6.772;2023-06-22T06:58:35;8.40;;;7.70;;
1837;SDS011;918;50.796;6.772;2023-06-22T07:01:01;8.03;;;7.40;;
1837;SDS011;918;50.796;6.772;2023-06-22T07:03:27;7.10;;;6.60;;
1837;SDS011;918;50.796;6.772;2023-06-22T07:05:53;7.83;;;7.23;;
1837;SDS011;918;50.796;6.772;2023-06-22T07:08:18;7.00;;;6.23;;
1837;SDS011;918;50.796;6.772;2023-06-22T07:10:43;6.83;;;6.43;;
1837;SDS011;918;50.796;6.772;2023-06-22T07:13:08;6.70;;;6.10;;
1837;SDS011;918;50.796;6.772;2023-06-22T07:15:34;7.10;;;6.63;;
1837;SDS011;918;50.796;6.772;2023-06-22T07:17:59;7.60;;;7.10;;
1837;SDS011;918;50.796;6.772;2023-06-22T07:20:24;9.53;;;8.73;;
1837;SDS011;918;50.796;6.772;2023-06-22T07:22:49;8.40;;;7.70;;
1837;SDS011;918;50.796;6.772;2023-06-22T07:25:15;8.97;;;8.27;;
1837;SDS011;918;50.796;6.772;2023-06-22T07:27:44;8.17;;;7.47;;
1837;SDS011;918;50.796;6.772;2023-06-22T07:30:11;7.93;;;7.40;;
1837;SDS011;918;50.796;6.772;2023-06-22T07:32:37;8.63;;;7.83;;
1837;SDS011;918;50.796;6.772;2023-06-22T07:35:02;9.73;;;8.20;;
1837;SDS011;918;50.796;6.772;2023-06-22T07:37:29;7.20;;;6.80;;
1837;SDS011;918;50.796;6.772;2023-06-22T07:39:54;8.53;;;7.73;;
1837;SDS011;918;50.796;6.772;2023-06-22T07:42:24;9.00;;;8.30;;
1837;SDS011;918;50.796;6.772;2023-06-22T07:44:49;9.40;;;8.60;;
1837;SDS011;918;50.796;6.772;2023-06-22T07:47:16;8.07;;;7.57;;
1837;SDS011;918;50.796;6.772;2023-06-22T07:49:42;8.20;;;7.70;;
1837;SDS011;918;50.796;6.772;2023-06-22T07:52:08;7.40;;;7.00;;
1837;SDS011;918;50.796;6.772;2023-06-22T07:54:33;8.43;;;7.73;;
1837;SDS011;918;50.796;6.772;2023-06-22T07:56:58;8.00;;;7.40;;
1837;SDS011;918;50.796;6.772;2023-06-22T07:59:24;8.20;;;7.50;;
1837;SDS011;918;50.796;6.772;2023-06-22T08:01:49;7.50;;;7.00;;
1837;SDS011;918;50.796;6.772;2023-06-22T08:04:14;7.73;;;7.20;;
1837;SDS011;918;50.796;6.772;2023-06-22T08:06:40;7.70;;;7.13;;
1837;SDS011;918;50.796;6.772;2023-06-22T08:09:05;7.67;;;7.17;;
1837;SDS011;918;50.796;6.772;2023-06-22T08:11:30;9.47;;;8.57;;
1837;SDS011;918;50.796;6.772;2023-06-22T08:13:55;8.47;;;7.80;;
1837;SDS011;918;50.796;6.772;2023-06-22T08:16:23;9.73;;;9.03;;
1837;SDS011;918;50.796;6.772;2023-06-22T08:18:48;9.33;;;8.53;;
1837;SDS011;918;50.796;6.772;2023-06-22T08:21:13;9.93;;;9.10;;
1837;SDS011;918;50.796;6.772;2023-06-22T08:23:39;10.83;;;10.03;;
1837;SDS011;918;50.796;6.772;2023-06-22T08:26:04;9.67;;;8.70;;
1837;SDS011;918;50.796;6.772;2023-06-22T08:28:29;9.70;;;8.93;;
1837;SDS011;918;50.796;6.772;2023-06-22T08:30:54;10.73;;;9.97;;
1837;SDS011;918;50.796;6.772;2023-06-22T08:33:20;9.80;;;8.90;;
1837;SDS011;918;50.796;6.772;2023-06-22T08:35:48;10.20;;;9.50;;
1837;SDS011;918;50.796;6.772;2023-06-22T08:38:13;9.20;;;8.30;;
1837;SDS011;918;50.796;6.772;2023-06-22T08:40:40;7.07;;;6.57;;
1837;SDS011;918;50.796;6.772;2023-06-22T08:43:05;7.67;;;7.17;;
1837;SDS011;918;50.796;6.772;2023-06-22T08:45:31;7.73;;;7.23;;
1837;SDS011;918;50.796;6.772;2023-06-22T08:47:56;7.90;;;7.30;;
1837;SDS011;918;50.796;6.772;2023-06-22T08:50:21;7.10;;;6.67;;
1837;SDS011;918;50.796;6.772;2023-06-22T08:52:46;7.73;;;7.13;;
1837;SDS011;918;50.796;6.772;2023-06-22T08:55:12;8.17;;;7.53;;
1837;SDS011;918;50.796;6.772;2023-06-22T08:57:37;8.87;;;8.27;;
1837;SDS011;918;50.796;6.772;2023-06-22T09:00:05;8.60;;;8.00;;
1837;SDS011;918;50.796;6.772;2023-06-22T09:02:44;7.87;;;7.37;;
1837;SDS011;918;50.796;6.772;2023-06-22T09:05:10;8.70;;;8.10;;
1837;SDS011;918;50.796;6.772;2023-06-22T09:07:35;8.27;;;7.77;;
1837;SDS011;918;50.796;6.772;2023-06-22T09:10:00;8.50;;;8.00;;
1837;SDS011;918;50.796;6.772;2023-06-22T09:12:26;8.93;;;8.33;;
1837;SDS011;918;50.796;6.772;2023-06-22T09:14:52;8.53;;;7.53;;
1837;SDS011;918;50.796;6.772;2023-06-22T09:17:17;8.70;;;7.90;;
1837;SDS011;918;50.796;6.772;2023-06-22T09:19:43;8.10;;;7.50;;
1837;SDS011;918;50.796;6.772;2023-06-22T09:22:08;8.70;;;8.00;;
1837;SDS011;918;50.796;6.772;2023-06-22T09:24:33;8.73;;;8.13;;
1837;SDS011;918;50.796;6.772;2023-06-22T09:26:59;8.43;;;7.83;;
1837;SDS011;918;50.796;6.772;2023-06-22T09:29:24;9.10;;;8.23;;
1837;SDS011;918;50.796;6.772;2023-06-22T09:31:50;7.63;;;7.23;;
1837;SDS011;918;50.796;6.772;2023-06-22T09:34:15;8.73;;;8.10;;
1837;SDS011;918;50.796;6.772;2023-06-22T09:36:45;7.90;;;7.20;;
1837;SDS011;918;50.796;6.772;2023-06-22T09:39:11;8.50;;;8.03;;
1837;SDS011;918;50.796;6.772;2023-06-22T09:41:36;8.00;;;7.40;;
1837;SDS011;918;50.796;6.772;2023-06-22T09:44:01;9.10;;;8.40;;
1837;SDS011;918;50.796;6.772;2023-06-22T09:46:26;8.50;;;8.00;;
1837;SDS011;918;50.796;6.772;2023-06-22T09:48:52;7.90;;;7.40;;
1837;SDS011;918;50.796;6.772;2023-06-22T09:51:18;8.83;;;8.23;;
1837;SDS011;918;50.796;6.772;2023-06-22T09:53:44;8.80;;;8.20;;
1837;SDS011;918;50.796;6.772;2023-06-22T09:56:10;10.00;;;9.13;;
1837;SDS011;918;50.796;6.772;2023-06-22T09:58:39;9.00;;;8.30;;
1837;SDS011;918;50.796;6.772;2023-06-22T10:01:05;9.03;;;8.40;;
1837;SDS011;918;50.796;6.772;2023-06-22T10:03:30;8.83;;;8.30;;
1837;SDS011;918;50.796;6.772;2023-06-22T10:05:56;9.20;;;8.60;;
1837;SDS011;918;50.796;6.772;2023-06-22T10:08:21;8.57;;;7.87;;
1837;SDS011;918;50.796;6.772;2023-06-22T10:10:47;10.17;;;9.37;;
1837;SDS011;918;50.796;6.772;2023-06-22T10:13:12;11.60;;;10.60;;
1837;SDS011;918;50.796;6.772;2023-06-22T10:15:38;11.30;;;10.23;;
1837;SDS011;918;50.796;6.772;2023-06-22T10:18:03;12.03;;;11.13;;
1837;SDS011;918;50.796;6.772;2023-06-22T10:20:29;12.60;;;11.50;;
1837;SDS011;918;50.796;6.772;2023-06-22T10:22:54;14.03;;;12.83;;
1837;SDS011;918;50.796;6.772;2023-06-22T10:25:19;12.23;;;11.30;;
1837;SDS011;918;50.796;6.772;2023-06-22T10:27:45;14.03;;;13.03;;
1837;SDS011;918;50.796;6.772;2023-06-22T10:30:11;13.87;;;12.90;;
1837;SDS011;918;50.796;6.772;2023-06-22T10:32:38;13.67;;;12.57;;
1837;SDS011;918;50.796;6.772;2023-06-22T10:35:03;15.00;;;13.80;;
1837;SDS011;918;50.796;6.772;2023-06-22T10:37:29;14.53;;;13.37;;
1837;SDS011;918;50.796;6.772;2023-06-22T10:39:54;14.20;;;13.30;;
1837;SDS011;918;50.796;6.772;2023-06-22T10:42:20;15.03;;;13.73;;
1837;SDS011;918;50.796;6.772;2023-06-22T10:44:45;15.00;;;13.87;;
1837;SDS011;918;50.796;6.772;2023-06-22T10:47:11;15.37;;;14.27;;
1837;SDS011;918;50.796;6.772;2023-06-22T10:49:39;15.90;;;14.70;;
1837;SDS011;918;50.796;6.772;2023-06-22T10:52:08;16.73;;;15.10;;
1837;SDS011;918;50.796;6.772;2023-06-22T10:54:34;14.73;;;13.60;;
1837;SDS011;918;50.796;6.772;2023-06-22T10:57:00;15.40;;;14.17;;
1837;SDS011;918;50.796;6.772;2023-06-22T10:59:26;16.47;;;15.27;;
1837;SDS011;918;50.796;6.772;2023-06-22T11:01:52;15.80;;;14.60;;
1837;SDS011;918;50.796;6.772;2023-06-22T11:04:18;16.20;;;15.10;;
1837;SDS011;918;50.796;6.772;2023-06-22T11:06:43;17.17;;;15.90;;
1837;SDS011;918;50.796;6.772;2023-06-22T11:09:08;15.17;;;13.97;;
1837;SDS011;918;50.796;6.772;2023-06-22T11:11:34;16.80;;;15.60;;
1837;SDS011;918;50.796;6.772;2023-06-22T11:13:59;14.03;;;12.93;;
1837;SDS011;918;50.796;6.772;2023-06-22T11:16:24;15.63;;;14.53;;
1837;SDS011;918;50.796;6.772;2023-06-22T11:18:49;15.13;;;14.03;;
1837;SDS011;918;50.796;6.772;2023-06-22T11:21:15;14.07;;;13.10;;
1837;SDS011;918;50.796;6.772;2023-06-22T11:23:41;14.33;;;13.17;;
1837;SDS011;918;50.796;6.772;2023-06-22T11:26:07;15.43;;;14.40;;
1837;SDS011;918;50.796;6.772;2023-06-22T11:28:32;15.40;;;14.20;;
1837;SDS011;918;50.796;6.772;2023-06-22T11:30:57;16.93;;;15.53;;
1837;SDS011;918;50.796;6.772;2023-06-22T11:33:23;17.07;;;15.87;;
1837;SDS011;918;50.796;6.772;2023-06-22T11:35:48;18.00;;;16.77;;
1837;SDS011;918;50.796;6.772;2023-06-22T11:38:13;17.50;;;16.20;;
1837;SDS011;918;50.796;6.772;2023-06-22T11:40:38;16.20;;;14.80;;
1837;SDS011;918;50.796;6.772;2023-06-22T11:43:04;17.47;;;16.27;;
1837;SDS011;918;50.796;6.772;2023-06-22T11:45:29;17.33;;;16.13;;
1837;SDS011;918;50.796;6.772;2023-06-22T11:47:54;16.83;;;15.63;;
1837;SDS011;918;50.796;6.772;2023-06-22T11:50:19;17.90;;;16.50;;
1837;SDS011;918;50.796;6.772;2023-06-22T11:52:45;18.90;;;17.60;;
1837;SDS011;918;50.796;6.772;2023-06-22T11:55:10;19.87;;;18.40;;
1837;SDS011;918;50.796;6.772;2023-06-22T11:57:36;18.53;;;17.23;;
1837;SDS011;918;50.796;6.772;2023-06-22T12:00:03;15.57;;;14.47;;
1837;SDS011;918;50.796;6.772;2023-06-22T12:02:39;15.70;;;14.70;;
1837;SDS011;918;50.796;6.772;2023-06-22T12:05:04;16.80;;;15.60;;
1837;SDS011;918;50.796;6.772;2023-06-22T12:07:30;17.63;;;16.37;;
1837;SDS011;918;50.796;6.772;2023-06-22T12:09:55;17.73;;;16.27;;
1837;SDS011;918;50.796;6.772;2023-06-22T12:12:21;16.30;;;15.10;;
1837;SDS011;918;50.796;6.772;2023-06-22T12:14:46;18.10;;;16.67;;
1837;SDS011;918;50.796;6.772;2023-06-22T12:17:11;16.73;;;15.43;;
1837;SDS011;918;50.796;6.772;2023-06-22T12:19:37;16.90;;;15.60;;
1837;SDS011;918;50.796;6.772;2023-06-22T12:22:02;16.13;;;15.13;;
1837;SDS011;918;50.796;6.772;2023-06-22T12:24:27;16.27;;;14.97;;
1837;SDS011;918;50.796;6.772;2023-06-22T12:26:52;16.27;;;15.17;;
1837;SDS011;918;50.796;6.772;2023-06-22T12:29:18;14.93;;;13.90;;
1837;SDS011;918;50.796;6.772;2023-06-22T12:31:43;13.97;;;12.87;;
1837;SDS011;918;50.796;6.772;2023-06-22T12:34:08;12.87;;;11.97;;
1837;SDS011;918;50.796;6.772;2023-06-22T12:36:33;12.97;;;12.17;;
1837;SDS011;918;50.796;6.772;2023-06-22T12:38:59;13.07;;;11.93;;
1837;SDS011;918;50.796;6.772;2023-06-22T12:41:24;11.67;;;10.97;;
1837;SDS011;918;50.796;6.772;2023-06-22T12:43:49;13.07;;;12.17;;
1837;SDS011;918;50.796;6.772;2023-06-22T12:46:14;14.70;;;13.70;;
1837;SDS011;918;50.796;6.772;2023-06-22T12:48:40;12.00;;;11.10;;
1837;SDS011;918;50.796;6.772;2023-06-22T12:51:07;11.50;;;10.70;;
1837;SDS011;918;50.796;6.772;2023-06-22T12:53:34;11.80;;;11.10;;
1837;SDS011;918;50.796;6.772;2023-06-22T12:56:00;10.97;;;10.37;;
1837;SDS011;918;50.796;6.772;2023-06-22T12:58:25;10.50;;;9.90;;
1837;SDS011;918;50.796;6.772;2023-06-22T13:00:50;10.73;;;10.00;;
1837;SDS011;918;50.796;6.772;2023-06-22T13:03:16;11.23;;;10.53;;
1837;SDS011;918;50.796;6.772;2023-06-22T13:05:41;11.47;;;10.67;;
1837;SDS011;918;50.796;6.772;2023-06-22T13:08:06;11.53;;;10.83;;
1837;SDS011;918;50.796;6.772;2023-06-22T13:10:33;11.83;;;10.90;;
1837;SDS011;918;50.796;6.772;2023-06-22T13:12:58;11.67;;;10.87;;
1837;SDS011;918;50.796;6.772;2023-06-22T13:15:26;12.47;;;11.60;;
1837;SDS011;918;50.796;6.772;2023-06-22T13:17:52;12.40;;;11.50;;
1837;SDS011;918;50.796;6.772;2023-06-22T13:20:17;11.03;;;10.33;;
1837;SDS011;918;50.796;6.772;2023-06-22T13:22:43;13.80;;;12.90;;
1837;SDS011;918;50.796;6.772;2023-06-22T13:25:08;14.80;;;13.80;;
1837;SDS011;918;50.796;6.772;2023-06-22T13:27:37;15.80;;;14.70;;
1837;SDS011;918;50.796;6.772;2023-06-22T13:30:03;15.07;;;14.07;;
1837;SDS011;918;50.796;6.772;2023-06-22T13:32:28;16.23;;;15.03;;
1837;SDS011;918;50.796;6.772;2023-06-22T13:34:54;15.77;;;14.67;;
1837;SDS011;918;50.796;6.772;2023-06-22T13:37:19;13.97;;;12.87;;
1837;SDS011;918;50.796;6.772;2023-06-22T13:39:44;12.90;;;12.10;;
1837;SDS011;918;50.796;6.772;2023-06-22T13:42:09;12.30;;;11.50;;
1837;SDS011;918;50.796;6.772;2023-06-22T13:44:35;12.47;;;11.57;;
1837;SDS011;918;50.796;6.772;2023-06-22T13:47:00;14.03;;;13.03;;
1837;SDS011;918;50.796;6.772;2023-06-22T13:49:25;14.03;;;12.97;;
1837;SDS011;918;50.796;6.772;2023-06-22T13:51:51;12.90;;;12.10;;
1837;SDS011;918;50.796;6.772;2023-06-22T13:54:16;12.10;;;11.30;;
1837;SDS011;918;50.796;6.772;2023-06-22T13:56:41;12.13;;;11.20;;
1837;SDS011;918;50.796;6.772;2023-06-22T13:59:06;11.83;;;11.03;;
1837;SDS011;918;50.796;6.772;2023-06-22T14:01:34;10.77;;;10.07;;
1837;SDS011;918;50.796;6.772;2023-06-22T14:03:59;11.57;;;10.67;;
1837;SDS011;918;50.796;6.772;2023-06-22T14:06:26;11.17;;;10.37;;
1837;SDS011;918;50.796;6.772;2023-06-22T14:08:52;12.43;;;11.60;;
1837;SDS011;918;50.796;6.772;2023-06-22T14:11:17;11.73;;;10.73;;
1837;SDS011;918;50.796;6.772;2023-06-22T14:13:42;11.07;;;10.37;;
1837;SDS011;918;50.796;6.772;2023-06-22T14:16:08;11.30;;;10.50;;
1837;SDS011;918;50.796;6.772;2023-06-22T14:18:33;12.30;;;11.50;;
1837;SDS011;918;50.796;6.772;2023-06-22T14:20:58;13.47;;;12.47;;
1837;SDS011;918;50.796;6.772;2023-06-22T14:23:24;12.90;;;12.10;;
1837;SDS011;918;50.796;6.772;2023-06-22T14:25:49;11.40;;;10.60;;
1837;SDS011;918;50.796;6.772;2023-06-22T14:28:15;11.13;;;10.43;;
1837;SDS011;918;50.796;6.772;2023-06-22T14:30:41;10.10;;;9.23;;
1837;SDS011;918;50.796;6.772;2023-06-22T14:33:06;10.60;;;9.90;;
1837;SDS011;918;50.796;6.772;2023-06-22T14:35:32;10.37;;;9.70;;
1837;SDS011;918;50.796;6.772;2023-06-22T14:37:57;9.63;;;9.03;;
1837;SDS011;918;50.796;6.772;2023-06-22T14:40:22;9.53;;;8.93;;
1837;SDS011;918;50.796;6.772;2023-06-22T14:42:47;9.80;;;9.20;;
1837;SDS011;918;50.796;6.772;2023-06-22T14:45:13;9.53;;;8.83;;
1837;SDS011;918;50.796;6.772;2023-06-22T14:47:38;9.43;;;8.73;;
1837;SDS011;918;50.796;6.772;2023-06-22T14:50:04;8.50;;;8.00;;
1837;SDS011;918;50.796;6.772;2023-06-22T14:52:30;7.90;;;7.20;;
1837;SDS011;918;50.796;6.772;2023-06-22T14:54:55;8.07;;;7.40;;
1837;SDS011;918;50.796;6.772;2023-06-22T14:57:20;8.17;;;7.67;;
1837;SDS011;918;50.796;6.772;2023-06-22T14:59:47;7.37;;;6.87;;
1837;SDS011;918;50.796;6.772;2023-06-22T15:02:13;7.23;;;6.70;;
1837;SDS011;918;50.796;6.772;2023-06-22T15:04:41;6.23;;;5.73;;
1837;SDS011;918;50.796;6.772;2023-06-22T15:07:06;7.10;;;6.50;;
1837;SDS011;918;50.796;6.772;2023-06-22T15:09:31;7.87;;;7.37;;
1837;SDS011;918;50.796;6.772;2023-06-22T15:11:58;10.17;;;9.13;;
1837;SDS011;918;50.796;6.772;2023-06-22T15:14:25;18.30;;;10.40;;
1837;SDS011;918;50.796;6.772;2023-06-22T15:16:50;9.93;;;8.93;;